Bowler, Wisconsin
Current Conditions -  °F | °C
As of 6:15 AM on Monday 22 Dec 2014 (Local Time) from KCLI Reporting Station
Overcast Overcast  
Wind Chill: 27°   Ceiling: 1600
Heat Index: 34°   Visibility: 7mi
Dew Point: 30°   Wind: 8mph
Humidity: 87%   Direction: 150°SSE
Pressure: 29.89"   Gusts: NA
Location:  44.86°N, 88.98°W
Report Text: KCLI 221215Z AUTO 15007KT 7SM OVC016 01/M01 A2989 RMK AO2
Loading
Personal Weather Stations






























Interactive Weather Map New forecast layout! Learn more

10-Day Weather Forecast

Advertisements
Track Severe Weather on mobile